Terminal Aerodrome Forecast
Issued by NWS

Home | Current Version | Previous Version | Text Only | Print | Product List | Glossary On
Versions: 1 2 3 4 5 6 7 8 9 10 11 12 13 14 15 16 17 18 19 20 21 22 23 24 25 26 27 28 29
000
FTPQ31 PGUM 120654 AAD
TAFTYA
TAF AMD
PTYA 120654Z 1207/1306 07011KT P6SM VCSH SCT015 SCT030 SCT130
      TEMPO 1207/1209 5SM SHRA SCT015 OVC030=

USA.gov is the U.S. government's official web portal to all federal, state and local government web resources and services.